createdAt,value
2023-03-25T00:02:27.329Z,90.03
2023-03-25T00:04:54.894Z,90.18
2023-03-25T00:07:21.950Z,90.78
2023-03-25T00:09:48.715Z,90.59
2023-03-25T00:12:18.446Z,90.58
2023-03-25T00:14:54.318Z,90.98
2023-03-25T00:17:22.371Z,91.58
2023-03-25T00:19:51.823Z,91.31
2023-03-25T00:22:19.071Z,91.34
2023-03-25T00:24:45.515Z,91.60
2023-03-25T00:27:14.224Z,92.01
2023-03-25T00:29:42.112Z,92.36
2023-03-25T00:32:08.575Z,92.90
2023-03-25T00:34:35.153Z,92.67
2023-03-25T00:37:04.920Z,92.09
2023-03-25T00:39:31.443Z,92.27
2023-03-25T00:41:59.020Z,92.27
2023-03-25T00:44:25.401Z,92.35
2023-03-25T00:46:51.765Z,92.30
2023-03-25T00:49:18.618Z,92.25
2023-03-25T00:51:53.226Z,92.24
2023-03-25T00:54:22.120Z,91.94
2023-03-25T00:56:49.689Z,91.66
2023-03-25T00:59:16.229Z,91.29
2023-03-25T01:01:43.476Z,91.34
2023-03-25T01:04:12.508Z,90.85
2023-03-25T01:06:43.779Z,90.78
2023-03-25T01:09:13.767Z,90.67
2023-03-25T01:11:43.894Z,90.16
2023-03-25T01:14:14.681Z,90.06
2023-03-25T01:16:41.080Z,89.69
2023-03-25T01:19:07.706Z,89.85
2023-03-25T01:21:36.508Z,89.34
2023-03-25T01:24:04.983Z,88.55
2023-03-25T01:26:31.530Z,89.05
2023-03-25T01:28:58.387Z,88.87
2023-03-25T01:31:30.081Z,88.54
2023-03-25T01:33:58.025Z,88.06
2023-03-25T01:36:29.290Z,88.01
2023-03-25T01:38:58.839Z,87.11
2023-03-25T01:41:39.091Z,86.19
2023-03-25T01:44:18.299Z,85.99
2023-03-25T01:46:45.416Z,86.59
2023-03-25T01:49:27.250Z,86.96
2023-03-25T01:51:59.563Z,85.99
2023-03-25T01:54:27.405Z,86.14
2023-03-25T01:56:55.879Z,86.08
2023-03-25T01:59:27.013Z,85.76
2023-03-25T02:01:55.869Z,85.39
2023-03-25T02:04:44.131Z,85.18
2023-03-25T02:07:11.352Z,85.20
2023-03-25T02:09:38.962Z,85.42
2023-03-25T02:12:07.258Z,85.31
2023-03-25T02:14:36.151Z,85.41
2023-03-25T02:17:12.447Z,84.99
2023-03-25T02:20:09.154Z,84.35
2023-03-25T02:23:09.878Z,84.67
2023-03-25T02:25:39.531Z,84.58
2023-03-25T02:28:17.794Z,84.47
2023-03-25T02:30:52.283Z,84.88
2023-03-25T02:33:22.079Z,85.23
2023-03-25T02:36:03.949Z,86.50
2023-03-25T02:38:55.706Z,85.62
2023-03-25T02:41:25.784Z,85.93
2023-03-25T02:44:05.319Z,86.41
2023-03-25T02:46:33.476Z,86.52
2023-03-25T02:49:09.010Z,86.75
2023-03-25T02:51:42.500Z,86.60
2023-03-25T02:54:11.065Z,87.10
2023-03-25T02:56:40.461Z,86.80
2023-03-25T02:59:08.412Z,87.28
2023-03-25T03:01:36.227Z,86.77
2023-03-25T03:04:03.090Z,86.96
2023-03-25T03:06:29.619Z,86.81
2023-03-25T03:08:56.226Z,87.05
2023-03-25T03:11:57.346Z,87.48
2023-03-25T03:14:26.687Z,87.44
2023-03-25T03:17:18.314Z,87.21
2023-03-25T03:19:55.481Z,87.56
2023-03-25T03:23:02.007Z,88.00
2023-03-25T03:25:45.590Z,88.26
2023-03-25T03:28:38.933Z,88.38
2023-03-25T03:31:48.429Z,88.48
2023-03-25T03:34:18.789Z,88.69
2023-03-25T03:36:49.914Z,88.31
2023-03-25T03:39:24.858Z,88.59
2023-03-25T03:41:56.184Z,88.69
2023-03-25T03:44:29.474Z,88.98
2023-03-25T03:47:05.422Z,88.87
2023-03-25T03:49:57.934Z,89.67
2023-03-25T03:52:34.002Z,90.23
2023-03-25T03:55:05.154Z,91.43
2023-03-25T03:57:56.109Z,91.07
2023-03-25T04:00:28.762Z,90.94
2023-03-25T04:03:05.121Z,90.42
2023-03-25T04:05:32.357Z,90.36
2023-03-25T04:08:04.360Z,90.52
2023-03-25T04:10:40.338Z,90.72
2023-03-25T04:13:13.961Z,91.49
2023-03-25T04:15:41.291Z,91.16
2023-03-25T04:18:08.170Z,91.47
2023-03-25T04:20:36.400Z,90.85
2023-03-25T04:23:09.625Z,90.62
2023-03-25T04:25:36.010Z,90.76
2023-03-25T04:28:02.377Z,90.21
2023-03-25T04:30:29.282Z,90.40
2023-03-25T04:32:56.457Z,90.42
2023-03-25T04:35:23.111Z,90.14
2023-03-25T04:37:49.556Z,89.15
2023-03-25T04:40:18.617Z,89.00
2023-03-25T04:42:47.150Z,89.14
2023-03-25T04:45:16.668Z,89.43
2023-03-25T04:47:47.062Z,90.02
2023-03-25T04:50:27.139Z,89.80
2023-03-25T04:52:54.488Z,89.70
2023-03-25T04:55:21.498Z,89.15
2023-03-25T04:57:52.843Z,89.67
2023-03-25T05:00:22.199Z,88.85
2023-03-25T05:02:51.737Z,88.73
2023-03-25T05:05:20.923Z,88.01
2023-03-25T05:07:49.587Z,87.54
2023-03-25T05:10:21.888Z,86.99
2023-03-25T05:12:48.991Z,86.25
2023-03-25T05:15:19.749Z,86.65
2023-03-25T05:17:46.252Z,87.29
2023-03-25T05:20:14.635Z,88.00
2023-03-25T05:22:41.958Z,87.88
2023-03-25T05:25:10.161Z,88.71
2023-03-25T05:27:37.771Z,88.21
2023-03-25T05:30:05.367Z,87.67
2023-03-25T05:32:34.398Z,87.70
2023-03-25T05:35:02.196Z,88.08
2023-03-25T05:37:29.075Z,88.32
2023-03-25T05:39:56.330Z,88.34
2023-03-25T05:42:22.949Z,87.88
2023-03-25T05:44:53.749Z,87.54
2023-03-25T05:47:23.355Z,87.41
2023-03-25T05:49:51.954Z,87.46
2023-03-25T05:52:19.503Z,87.45
2023-03-25T05:54:50.639Z,87.92
2023-03-25T05:57:17.164Z,88.22
2023-03-25T05:59:43.734Z,88.13
2023-03-25T06:02:15.680Z,88.60
2023-03-25T06:04:42.818Z,88.53
2023-03-25T06:07:14.540Z,87.99
2023-03-25T06:09:46.147Z,88.13
2023-03-25T06:12:17.623Z,88.47
2023-03-25T06:14:45.702Z,88.60
2023-03-25T06:17:18.900Z,88.58
2023-03-25T06:19:45.715Z,88.57
2023-03-25T06:22:12.454Z,88.87
2023-03-25T06:24:40.142Z,89.21
2023-03-25T06:27:12.108Z,89.66
2023-03-25T06:29:38.698Z,89.13
2023-03-25T06:32:05.843Z,89.62
2023-03-25T06:34:35.186Z,90.00
2023-03-25T06:37:02.279Z,89.97
2023-03-25T06:39:33.597Z,90.20
2023-03-25T06:42:04.620Z,90.94
2023-03-25T06:44:48.272Z,90.34
2023-03-25T06:47:35.373Z,90.33
2023-03-25T06:50:02.053Z,90.48
2023-03-25T06:52:28.664Z,90.73
2023-03-25T06:54:55.467Z,91.36
2023-03-25T06:57:21.942Z,90.98
2023-03-25T06:59:49.624Z,91.36
2023-03-25T07:02:16.096Z,91.56
2023-03-25T07:04:42.473Z,91.71
2023-03-25T07:07:09.613Z,91.96
2023-03-25T07:09:36.058Z,91.71
2023-03-25T07:12:03.579Z,91.73
2023-03-25T07:14:30.279Z,91.72
2023-03-25T07:16:56.683Z,91.45
2023-03-25T07:19:23.176Z,91.42
2023-03-25T07:21:49.596Z,91.41
2023-03-25T07:24:16.040Z,91.67
2023-03-25T07:26:42.388Z,90.99
2023-03-25T07:29:10.559Z,91.32
2023-03-25T07:31:37.216Z,90.91
2023-03-25T07:34:04.808Z,90.74
2023-03-25T07:36:31.227Z,90.36
2023-03-25T07:38:57.717Z,89.82
2023-03-25T07:41:24.220Z,89.14
2023-03-25T07:44:12.284Z,88.73
2023-03-25T07:46:39.158Z,88.36
2023-03-25T07:49:05.534Z,86.55
2023-03-25T07:51:34.256Z,86.44
2023-03-25T07:54:04.904Z,85.88
2023-03-25T07:56:31.724Z,84.49
2023-03-25T07:58:58.152Z,84.40
2023-03-25T08:01:24.546Z,84.34
2023-03-25T08:03:51.032Z,82.83
2023-03-25T08:06:17.732Z,82.62
2023-03-25T08:08:44.788Z,80.71
2023-03-25T08:11:11.614Z,80.64
2023-03-25T08:13:38.687Z,79.62
2023-03-25T08:16:12.268Z,79.29
2023-03-25T08:18:38.994Z,78.42
2023-03-25T08:21:05.969Z,78.18
2023-03-25T08:23:36.773Z,79.35
2023-03-25T08:26:05.513Z,78.91
2023-03-25T08:28:33.231Z,79.70
2023-03-25T08:31:02.360Z,79.11
2023-03-25T08:33:39.408Z,80.11
2023-03-25T08:36:06.617Z,78.77
2023-03-25T08:38:34.901Z,79.38
2023-03-25T08:41:02.792Z,80.39
2023-03-25T08:43:29.175Z,80.87
2023-03-25T08:45:55.603Z,79.46
2023-03-25T08:48:22.985Z,80.07
2023-03-25T08:50:49.385Z,80.15
2023-03-25T08:53:15.976Z,79.64
2023-03-25T08:55:42.763Z,79.33
2023-03-25T08:58:09.220Z,78.59
2023-03-25T09:00:37.701Z,78.66
2023-03-25T09:03:05.280Z,78.54
2023-03-25T09:05:32.094Z,78.73
2023-03-25T09:07:58.589Z,79.22
2023-03-25T09:10:25.170Z,80.47
2023-03-25T09:12:51.955Z,82.25
2023-03-25T09:15:18.453Z,83.19
2023-03-25T09:17:45.180Z,86.65
2023-03-25T09:20:12.335Z,86.75
2023-03-25T09:22:39.274Z,84.87
2023-03-25T09:25:06.858Z,85.25
2023-03-25T09:27:33.891Z,85.25
2023-03-25T09:30:00.347Z,85.06
2023-03-25T09:32:27.184Z,84.62
2023-03-25T09:34:54.142Z,82.01
2023-03-25T09:37:20.597Z,81.37
2023-03-25T09:39:47.112Z,81.31
2023-03-25T09:42:55.376Z,79.36
2023-03-25T09:45:36.745Z,79.20
2023-03-25T09:48:15.716Z,80.91
2023-03-25T09:50:44.194Z,79.86
2023-03-25T09:53:30.999Z,80.09
2023-03-25T09:55:57.838Z,80.62
2023-03-25T09:58:45.445Z,81.49
2023-03-25T10:01:45.850Z,86.05
2023-03-25T10:04:31.132Z,85.66
2023-03-25T10:07:25.902Z,86.95
2023-03-25T10:10:05.386Z,87.05
2023-03-25T10:12:47.158Z,88.22
2023-03-25T10:15:40.476Z,89.23
2023-03-25T10:18:22.254Z,86.25
2023-03-25T10:21:11.435Z,88.75
2023-03-25T10:23:45.702Z,87.36
2023-03-25T10:26:24.910Z,86.82
2023-03-25T10:29:01.197Z,84.09
2023-03-25T10:31:31.861Z,82.52
2023-03-25T10:34:05.549Z,81.98
2023-03-25T10:36:35.825Z,81.15
2023-03-25T10:39:10.824Z,80.29
2023-03-25T10:41:40.782Z,85.60
2023-03-25T10:44:11.168Z,89.69
2023-03-25T10:46:47.658Z,92.82
2023-03-25T10:49:21.287Z,92.24
2023-03-25T10:51:53.731Z,92.31
2023-03-25T10:54:24.044Z,92.57
2023-03-25T10:56:52.977Z,92.35
2023-03-25T10:59:34.813Z,91.52
2023-03-25T11:02:10.381Z,90.57
2023-03-25T11:04:40.952Z,91.63
2023-03-25T11:07:20.670Z,91.72
2023-03-25T11:09:47.400Z,88.49
2023-03-25T11:12:19.698Z,86.64
2023-03-25T11:14:56.721Z,87.36
2023-03-25T11:17:27.088Z,88.00
2023-03-25T11:19:57.245Z,85.31
2023-03-25T11:22:29.298Z,84.89
2023-03-25T11:25:03.259Z,80.15
2023-03-25T11:27:30.437Z,76.50
2023-03-25T11:30:02.942Z,80.52
2023-03-25T11:32:38.422Z,75.69
2023-03-25T11:35:26.817Z,73.16
2023-03-25T11:38:02.567Z,68.81
2023-03-25T11:40:31.066Z,67.71
2023-03-25T11:42:59.753Z,64.06
2023-03-25T11:45:35.898Z,61.45
2023-03-25T11:48:11.385Z,61.54
2023-03-25T11:50:38.127Z,60.62
2023-03-25T11:53:06.283Z,62.31
2023-03-25T11:55:43.763Z,63.47
2023-03-25T11:58:16.030Z,64.98
2023-03-25T12:00:51.663Z,65.10
2023-03-25T12:03:26.594Z,63.25
2023-03-25T12:06:01.232Z,65.20
2023-03-25T12:08:43.536Z,64.56
2023-03-25T12:11:16.625Z,58.56
2023-03-25T12:14:03.983Z,59.97
2023-03-25T12:16:43.981Z,56.67
2023-03-25T12:19:35.572Z,57.37
2023-03-25T12:22:10.739Z,58.64
2023-03-25T12:24:37.150Z,58.65
2023-03-25T12:27:11.002Z,59.49
2023-03-25T12:30:02.631Z,59.87
2023-03-25T12:32:53.518Z,57.79
2023-03-25T12:35:47.119Z,57.59
2023-03-25T12:38:51.264Z,58.67
2023-03-25T12:41:35.195Z,54.16
2023-03-25T12:44:13.958Z,53.29
2023-03-25T12:46:58.633Z,52.38
2023-03-25T12:50:16.422Z,52.26
2023-03-25T12:53:04.252Z,54.04
2023-03-25T12:55:33.335Z,56.43
2023-03-25T12:58:48.032Z,57.78
2023-03-25T13:01:59.557Z,58.20
2023-03-25T13:04:49.235Z,58.73
2023-03-25T13:07:22.451Z,60.44
2023-03-25T13:10:34.022Z,57.36
2023-03-25T13:13:08.257Z,56.99
2023-03-25T13:15:43.948Z,59.07
2023-03-25T13:18:28.242Z,56.85
2023-03-25T13:21:13.022Z,54.38
2023-03-25T13:23:42.484Z,55.40
2023-03-25T13:26:12.112Z,55.24
2023-03-25T13:29:07.072Z,55.94
2023-03-25T13:31:42.427Z,58.93
2023-03-25T13:34:35.121Z,61.96
2023-03-25T13:37:23.302Z,66.69
2023-03-25T13:40:13.256Z,67.52
2023-03-25T13:42:48.222Z,70.73
2023-03-25T13:45:18.925Z,74.44
2023-03-25T13:48:03.902Z,80.26
2023-03-25T13:50:31.896Z,82.91
2023-03-25T13:53:14.785Z,83.73
2023-03-25T13:55:48.215Z,87.99
2023-03-25T13:58:37.803Z,85.04
2023-03-25T14:01:32.188Z,83.93
2023-03-25T14:04:31.399Z,83.31
2023-03-25T14:07:24.269Z,87.59
2023-03-25T14:10:38.740Z,88.76
2023-03-25T14:13:10.703Z,89.80
2023-03-25T14:15:41.121Z,91.32
2023-03-25T14:18:16.721Z,94.09
2023-03-25T14:20:43.839Z,95.66
2023-03-25T14:23:18.285Z,97.72
2023-03-25T14:25:49.832Z,98.56
2023-03-25T14:28:33.352Z,97.59
2023-03-25T14:31:12.048Z,100.00
2023-03-25T14:34:00.676Z,99.90
2023-03-25T14:36:39.265Z,100.00
2023-03-25T14:39:32.080Z,100.00
2023-03-25T14:42:02.785Z,99.94
2023-03-25T14:44:32.843Z,97.28
2023-03-25T14:47:24.964Z,96.48
2023-03-25T14:50:04.839Z,96.62
2023-03-25T14:52:37.546Z,96.49
2023-03-25T14:55:45.375Z,97.33
2023-03-25T14:58:24.621Z,98.13
2023-03-25T15:00:58.872Z,96.87
2023-03-25T15:03:37.491Z,96.73
2023-03-25T15:06:06.683Z,94.59
2023-03-25T15:08:41.784Z,96.94
2023-03-25T15:11:16.784Z,97.84
2023-03-25T15:13:54.220Z,97.64
2023-03-25T15:16:26.703Z,97.54
2023-03-25T15:18:53.089Z,97.46
2023-03-25T15:21:23.625Z,93.79
2023-03-25T15:23:59.221Z,92.73
2023-03-25T15:26:39.272Z,94.00
2023-03-25T15:29:24.099Z,94.82
2023-03-25T15:32:19.668Z,92.21
2023-03-25T15:35:28.186Z,90.43
2023-03-25T15:38:07.749Z,89.38
2023-03-25T15:40:45.310Z,90.37
2023-03-25T15:43:59.450Z,89.00
2023-03-25T15:46:32.227Z,90.18
2023-03-25T15:49:11.671Z,90.67
2023-03-25T15:51:46.772Z,88.14
2023-03-25T15:54:35.685Z,87.63
2023-03-25T15:57:16.983Z,88.10
2023-03-25T15:59:51.546Z,88.52
2023-03-25T16:02:26.629Z,86.89
2023-03-25T16:04:53.569Z,88.16
2023-03-25T16:07:24.527Z,86.51
2023-03-25T16:09:51.629Z,86.77
2023-03-25T16:12:25.341Z,88.76
2023-03-25T16:14:52.972Z,89.27
2023-03-25T16:17:22.616Z,89.01
2023-03-25T16:19:55.083Z,88.50
2023-03-25T16:22:35.596Z,88.77
2023-03-25T16:25:06.576Z,89.28
2023-03-25T16:27:42.025Z,89.63
2023-03-25T16:30:36.503Z,89.22
2023-03-25T16:33:12.095Z,87.86
2023-03-25T16:35:41.757Z,88.36
2023-03-25T16:38:13.193Z,86.87
2023-03-25T16:40:41.418Z,87.00
2023-03-25T16:43:20.512Z,85.94
2023-03-25T16:45:48.895Z,85.78
2023-03-25T16:48:19.373Z,85.75
2023-03-25T16:50:46.218Z,85.30
2023-03-25T16:53:15.851Z,84.77
2023-03-25T16:55:50.630Z,84.75
2023-03-25T16:58:21.046Z,84.57
2023-03-25T17:00:51.714Z,85.24
2023-03-25T17:03:38.817Z,85.99
2023-03-25T17:06:19.446Z,84.69
2023-03-25T17:08:50.819Z,85.00
2023-03-25T17:11:17.252Z,84.92
2023-03-25T17:13:51.785Z,84.40
2023-03-25T17:16:19.947Z,85.41
2023-03-25T17:18:49.691Z,86.12
2023-03-25T17:21:30.043Z,92.72
2023-03-25T17:24:00.867Z,96.14
2023-03-25T17:26:33.511Z,98.19
2023-03-25T17:29:06.100Z,99.51
2023-03-25T17:31:40.861Z,99.43
2023-03-25T17:34:26.340Z,98.32
2023-03-25T17:36:58.021Z,97.77
2023-03-25T17:39:27.788Z,98.35
2023-03-25T17:42:00.449Z,97.41
2023-03-25T17:44:37.492Z,98.00
2023-03-25T17:47:05.551Z,97.54
2023-03-25T17:49:31.969Z,97.47
2023-03-25T17:51:58.690Z,97.41
2023-03-25T17:54:26.027Z,96.60
2023-03-25T17:56:53.049Z,96.80
2023-03-25T17:59:22.262Z,97.46
2023-03-25T18:01:49.820Z,96.09
2023-03-25T18:04:18.171Z,94.81
2023-03-25T18:06:44.781Z,94.80
2023-03-25T18:09:24.700Z,94.94
2023-03-25T18:11:55.758Z,94.84
2023-03-25T18:14:24.178Z,94.24
2023-03-25T18:16:51.564Z,92.68
2023-03-25T18:19:21.071Z,93.66
2023-03-25T18:21:47.990Z,93.12
2023-03-25T18:24:15.102Z,93.17
2023-03-25T18:26:43.383Z,92.44
2023-03-25T18:29:24.783Z,92.41
2023-03-25T18:31:51.924Z,92.18
2023-03-25T18:34:20.430Z,92.10
2023-03-25T18:36:46.825Z,92.10
2023-03-25T18:39:19.249Z,92.25
2023-03-25T18:41:45.983Z,92.36
2023-03-25T18:44:13.358Z,91.43
2023-03-25T18:46:40.219Z,90.71
2023-03-25T18:49:13.198Z,91.43
2023-03-25T18:51:40.076Z,92.09
2023-03-25T18:54:06.952Z,91.96
2023-03-25T18:56:33.625Z,91.76
2023-03-25T18:59:00.141Z,91.60
2023-03-25T19:01:26.773Z,94.14
2023-03-25T19:03:53.235Z,98.12
2023-03-25T19:06:19.666Z,98.51
2023-03-25T19:08:47.044Z,99.00
2023-03-25T19:11:20.655Z,99.29
2023-03-25T19:13:47.792Z,99.49
2023-03-25T19:16:14.269Z,100.00
2023-03-25T19:18:40.711Z,100.00
2023-03-25T19:21:07.322Z,99.79
2023-03-25T19:23:35.178Z,98.98
2023-03-25T19:26:02.168Z,97.77
2023-03-25T19:28:29.016Z,97.78
2023-03-25T19:31:00.323Z,98.74
2023-03-25T19:33:30.798Z,99.40
2023-03-25T19:35:59.600Z,100.00
2023-03-25T19:38:26.059Z,100.00
2023-03-25T19:41:10.292Z,100.00
2023-03-25T19:43:36.747Z,100.00
2023-03-25T19:46:05.358Z,100.00
2023-03-25T19:48:32.172Z,100.00
2023-03-25T19:50:58.679Z,100.00
2023-03-25T19:53:27.165Z,100.00
2023-03-25T19:55:54.687Z,100.00
2023-03-25T19:58:23.313Z,100.00
2023-03-25T20:00:50.415Z,100.00
2023-03-25T20:03:17.344Z,100.00
2023-03-25T20:05:43.793Z,100.00
2023-03-25T20:08:11.601Z,100.00
2023-03-25T20:10:39.149Z,100.00
2023-03-25T20:13:06.732Z,100.00
2023-03-25T20:15:33.378Z,100.00
2023-03-25T20:18:00.282Z,100.00
2023-03-25T20:20:27.118Z,100.00
2023-03-25T20:22:53.821Z,100.00
2023-03-25T20:25:20.485Z,100.00
2023-03-25T20:27:47.280Z,100.00
2023-03-25T20:30:17.867Z,100.00
2023-03-25T20:32:46.552Z,100.00
2023-03-25T20:35:15.773Z,100.00
2023-03-25T20:37:44.034Z,100.00
2023-03-25T20:40:14.207Z,100.00
2023-03-25T20:42:42.924Z,100.00
2023-03-25T20:45:11.424Z,100.00
2023-03-25T20:47:38.349Z,100.00
2023-03-25T20:50:05.816Z,100.00
2023-03-25T20:52:32.286Z,100.00
2023-03-25T20:54:59.056Z,100.00
2023-03-25T20:57:25.604Z,100.00
2023-03-25T20:59:56.271Z,100.00
2023-03-25T21:02:23.922Z,100.00
2023-03-25T21:04:50.864Z,100.00
2023-03-25T21:07:19.117Z,100.00
2023-03-25T21:09:47.582Z,100.00
2023-03-25T21:12:13.951Z,100.00
2023-03-25T21:14:40.670Z,100.00
2023-03-25T21:17:07.134Z,100.00
2023-03-25T21:19:33.711Z,100.00
2023-03-25T21:22:00.446Z,100.00
2023-03-25T21:24:26.946Z,100.00
2023-03-25T21:26:53.492Z,100.00
2023-03-25T21:29:20.836Z,100.00
2023-03-25T21:31:47.639Z,100.00
2023-03-25T21:34:15.701Z,100.00
2023-03-25T21:36:43.248Z,100.00
2023-03-25T21:39:10.214Z,100.00
2023-03-25T21:41:36.674Z,100.00
2023-03-25T21:44:03.322Z,100.00
2023-03-25T21:46:29.754Z,100.00
2023-03-25T21:48:58.484Z,100.00
2023-03-25T21:51:26.337Z,100.00
2023-03-25T21:53:53.143Z,100.00
2023-03-25T21:56:21.393Z,100.00
2023-03-25T21:58:48.488Z,100.00
2023-03-25T22:01:28.308Z,100.00
2023-03-25T22:03:57.154Z,100.00
2023-03-25T22:06:27.112Z,100.00
2023-03-25T22:08:56.800Z,100.00
2023-03-25T22:11:26.095Z,100.00
2023-03-25T22:13:52.579Z,100.00
2023-03-25T22:16:21.101Z,100.00
2023-03-25T22:18:48.877Z,100.00
2023-03-25T22:21:24.544Z,100.00
2023-03-25T22:23:54.589Z,100.00
2023-03-25T22:26:23.025Z,100.00
2023-03-25T22:28:54.140Z,100.00
2023-03-25T22:31:25.963Z,100.00
2023-03-25T22:33:54.899Z,100.00
2023-03-25T22:36:21.431Z,100.00
2023-03-25T22:38:52.037Z,100.00
2023-03-25T22:41:18.854Z,100.00
2023-03-25T22:43:46.361Z,100.00
2023-03-25T22:46:13.742Z,100.00
2023-03-25T22:48:40.851Z,100.00
2023-03-25T22:51:09.356Z,100.00
2023-03-25T22:53:35.832Z,100.00
2023-03-25T22:56:02.417Z,100.00
2023-03-25T22:58:31.406Z,100.00
2023-03-25T23:01:01.440Z,100.00
2023-03-25T23:03:28.661Z,100.00
2023-03-25T23:06:01.796Z,100.00
2023-03-25T23:08:31.321Z,100.00
2023-03-25T23:11:08.272Z,100.00
2023-03-25T23:13:35.471Z,100.00
2023-03-25T23:16:04.650Z,100.00
2023-03-25T23:18:31.762Z,100.00
2023-03-25T23:21:02.618Z,100.00
2023-03-25T23:23:29.511Z,100.00
2023-03-25T23:26:16.965Z,100.00
2023-03-25T23:28:45.360Z,100.00
2023-03-25T23:31:22.184Z,100.00
2023-03-25T23:33:50.798Z,100.00
2023-03-25T23:36:21.167Z,100.00
2023-03-25T23:38:48.030Z,100.00
2023-03-25T23:41:16.820Z,100.00
2023-03-25T23:43:43.775Z,100.00
2023-03-25T23:46:12.155Z,100.00
2023-03-25T23:48:42.511Z,100.00
2023-03-25T23:51:17.437Z,100.00
2023-03-25T23:53:46.837Z,100.00
2023-03-25T23:56:15.852Z,100.00
2023-03-25T23:58:43.094Z,100.00
